createdAt,value
2019-05-18T00:03:38.339Z,96041.89
2019-05-18T00:08:41.729Z,96043.33
2019-05-18T00:13:45.126Z,96039.17
2019-05-18T00:18:48.594Z,96039.59
2019-05-18T00:23:52.230Z,96042.06
2019-05-18T00:28:56.386Z,96043.80
2019-05-18T00:33:59.777Z,96043.58
2019-05-18T00:39:04.450Z,96039.33
2019-05-18T00:44:07.847Z,96046.03
2019-05-18T00:49:11.240Z,96040.16
2019-05-18T00:54:14.737Z,96034.12
2019-05-18T00:59:18.201Z,96025.54
2019-05-18T01:04:21.661Z,96024.84
2019-05-18T01:09:25.069Z,96024.87
2019-05-18T01:14:28.685Z,96026.82
2019-05-18T01:19:32.080Z,96023.56
2019-05-18T01:24:35.478Z,96021.47
2019-05-18T01:29:38.946Z,96026.16
2019-05-18T01:34:42.368Z,96029.20
2019-05-18T01:39:46.033Z,96029.03
2019-05-18T01:44:49.661Z,96018.16
2019-05-18T01:49:53.385Z,96021.53
2019-05-18T01:54:56.783Z,96023.82
2019-05-18T02:00:00.210Z,96022.62
2019-05-18T02:05:04.674Z,96015.34
2019-05-18T02:10:08.605Z,96018.60
2019-05-18T02:15:12.331Z,96019.80
2019-05-18T02:20:16.757Z,96020.21
2019-05-18T02:25:21.053Z,96015.50
2019-05-18T02:30:24.697Z,96011.78
2019-05-18T02:35:28.093Z,96014.13
2019-05-18T02:40:31.825Z,96008.89
2019-05-18T02:45:35.221Z,95997.17
2019-05-18T02:50:38.620Z,95994.52
2019-05-18T02:55:42.014Z,95991.03
2019-05-18T03:00:45.431Z,95976.87
2019-05-18T03:05:48.898Z,95984.66
2019-05-18T03:10:52.825Z,95987.17
2019-05-18T03:15:56.218Z,95984.51
2019-05-18T03:21:00.090Z,95986.66
2019-05-18T03:26:03.506Z,95987.77
2019-05-18T03:31:06.880Z,95998.50
2019-05-18T03:36:10.373Z,95994.80
2019-05-18T03:41:13.850Z,95998.19
2019-05-18T03:46:17.336Z,95999.42
2019-05-18T03:51:20.782Z,96001.39
2019-05-18T03:56:24.125Z,96005.60
2019-05-18T04:01:27.608Z,96008.88
2019-05-18T04:06:31.026Z,95999.59
2019-05-18T04:11:34.418Z,95995.11
2019-05-18T04:16:38.149Z,95996.60
2019-05-18T04:21:41.893Z,96010.44
2019-05-18T04:26:45.313Z,96016.28
2019-05-18T04:31:48.701Z,96019.22
2019-05-18T04:36:52.132Z,96027.76
2019-05-18T04:41:55.521Z,96029.21
2019-05-18T04:46:59.225Z,96037.90
2019-05-18T04:52:02.971Z,96038.56
2019-05-18T04:57:06.596Z,96041.37
2019-05-18T05:02:10.011Z,96038.59
2019-05-18T05:07:13.497Z,96041.80
2019-05-18T05:12:16.889Z,96052.93
2019-05-18T05:17:20.357Z,96047.36
2019-05-18T05:22:23.809Z,96046.55
2019-05-18T05:27:27.195Z,96045.23
2019-05-18T05:32:30.873Z,96045.19
2019-05-18T05:37:34.318Z,96041.54
2019-05-18T05:42:37.753Z,96046.20
2019-05-18T05:47:41.148Z,96043.27
2019-05-18T05:52:44.842Z,96049.53
2019-05-18T05:57:48.230Z,96051.56
2019-05-18T06:02:51.633Z,96059.39
2019-05-18T06:07:55.079Z,96056.48
2019-05-18T06:12:58.513Z,96054.52
2019-05-18T06:18:01.900Z,96051.02
2019-05-18T06:23:05.295Z,96054.06
2019-05-18T06:28:08.690Z,96055.82
2019-05-18T06:33:12.463Z,96060.89
2019-05-18T06:38:15.849Z,96064.20
2019-05-18T06:43:19.281Z,96069.31
2019-05-18T06:48:22.691Z,96075.23
2019-05-18T06:53:26.086Z,96074.77
2019-05-18T06:58:30.221Z,96076.59
2019-05-18T07:03:33.687Z,96070.25
2019-05-18T07:08:37.058Z,96076.05
2019-05-18T07:13:40.491Z,96076.05
2019-05-18T07:18:43.883Z,96066.85
2019-05-18T07:23:47.377Z,96065.91
2019-05-18T07:28:50.809Z,96058.33
2019-05-18T07:33:54.234Z,96058.33
2019-05-18T07:38:57.630Z,96046.19
2019-05-18T07:44:01.079Z,96052.54
2019-05-18T07:49:04.574Z,96047.35
2019-05-18T07:54:08.015Z,96044.67
2019-05-18T07:59:11.439Z,96050.01
2019-05-18T08:04:14.871Z,96046.08
2019-05-18T08:09:18.546Z,96045.55
2019-05-18T08:14:22.027Z,96044.20
2019-05-18T08:19:25.440Z,96048.45
2019-05-18T08:24:28.815Z,96045.64
2019-05-18T08:29:32.215Z,96049.11
2019-05-18T08:34:35.649Z,96046.23
2019-05-18T08:39:39.066Z,96040.76
2019-05-18T08:44:42.965Z,96037.09
2019-05-18T08:49:46.678Z,96038.23
2019-05-18T08:54:50.109Z,96035.36
2019-05-18T08:59:53.502Z,96038.01
2019-05-18T09:04:56.892Z,96034.47
2019-05-18T09:10:00.289Z,96037.50
2019-05-18T09:15:05.458Z,96031.61
2019-05-18T09:20:09.517Z,96028.61
2019-05-18T09:25:14.789Z,96028.17
2019-05-18T09:30:18.535Z,96032.45
2019-05-18T09:35:21.961Z,96027.14
2019-05-18T09:40:25.353Z,96025.51
2019-05-18T09:45:28.778Z,96018.79
2019-05-18T09:50:32.478Z,96027.70
2019-05-18T09:55:35.877Z,96021.74
2019-05-18T10:00:39.347Z,96027.34
2019-05-18T10:05:43.019Z,96023.70
2019-05-18T10:10:46.765Z,96014.70
2019-05-18T10:15:50.194Z,96017.45
2019-05-18T10:20:53.879Z,96009.67
2019-05-18T10:25:57.313Z,96003.13
2019-05-18T10:31:01.010Z,96007.53
2019-05-18T10:36:05.021Z,95997.40
2019-05-18T10:41:08.583Z,96001.96
2019-05-18T10:46:11.988Z,95994.30
2019-05-18T10:51:15.391Z,95995.55
2019-05-18T10:56:19.018Z,95987.54
2019-05-18T11:01:22.417Z,95987.98
2019-05-18T11:06:25.803Z,95987.31
2019-05-18T11:11:29.549Z,95983.05
2019-05-18T11:16:33.013Z,95972.34
2019-05-18T11:21:36.433Z,95971.03
2019-05-18T11:26:39.920Z,95973.28
2019-05-18T11:31:43.308Z,95972.86
2019-05-18T11:36:46.701Z,95962.02
2019-05-18T11:41:50.104Z,95967.80
2019-05-18T11:46:53.767Z,95953.45
2019-05-18T11:51:57.490Z,95960.10
2019-05-18T11:57:00.908Z,95956.10
2019-05-18T12:02:04.550Z,95954.34
2019-05-18T12:07:08.061Z,95954.90
2019-05-18T12:12:11.451Z,95944.45
2019-05-18T12:17:14.935Z,95954.97
2019-05-18T12:22:18.311Z,95946.16
2019-05-18T12:27:21.708Z,95935.34
2019-05-18T12:32:25.133Z,95938.84
2019-05-18T12:37:28.529Z,95935.27
2019-05-18T12:42:31.920Z,95935.52
2019-05-18T12:47:35.482Z,95927.28
2019-05-18T12:52:38.874Z,95928.78
2019-05-18T12:57:42.264Z,95931.83
2019-05-18T13:02:45.690Z,95920.83
2019-05-18T13:07:49.091Z,95915.09
2019-05-18T13:12:52.486Z,95912.53
2019-05-18T13:17:55.879Z,95903.13
2019-05-18T13:22:59.376Z,95904.14
2019-05-18T13:28:02.781Z,95903.33
2019-05-18T13:33:06.177Z,95901.06
2019-05-18T13:38:09.564Z,95894.41
2019-05-18T13:43:12.965Z,95883.46
2019-05-18T13:48:16.393Z,95890.50
2019-05-18T13:53:19.847Z,95882.11
2019-05-18T13:58:23.238Z,95879.07
2019-05-18T14:03:26.629Z,95877.90
2019-05-18T14:08:30.058Z,95876.42
2019-05-18T14:13:33.533Z,95875.89
2019-05-18T14:18:37.310Z,95881.25
2019-05-18T14:23:41.014Z,95877.78
2019-05-18T14:28:44.446Z,95869.50
2019-05-18T14:33:47.873Z,95878.73
2019-05-18T14:38:51.311Z,95868.62
2019-05-18T14:43:54.744Z,95872.70
2019-05-18T14:48:58.152Z,95868.42
2019-05-18T14:54:01.578Z,95866.64
2019-05-18T14:59:05.071Z,95865.55
2019-05-18T15:04:08.461Z,95862.92
2019-05-18T15:09:11.886Z,95865.52
2019-05-18T15:14:15.850Z,95855.77
2019-05-18T15:19:19.274Z,95855.90
2019-05-18T15:24:23.008Z,95853.34
2019-05-18T15:29:26.406Z,95858.12
2019-05-18T15:34:29.833Z,95853.63
2019-05-18T15:39:33.230Z,95850.34
2019-05-18T15:44:36.968Z,95850.19
2019-05-18T15:49:40.356Z,95847.02
2019-05-18T15:54:43.759Z,95841.77
2019-05-18T15:59:47.178Z,95836.98
2019-05-18T16:04:50.689Z,95830.08
2019-05-18T16:09:54.064Z,95828.63
2019-05-18T16:14:57.781Z,95835.30
2019-05-18T16:20:01.214Z,95828.83
2019-05-18T16:25:06.649Z,95830.23
2019-05-18T16:30:11.774Z,95830.89
2019-05-18T16:35:15.606Z,95830.03
2019-05-18T16:40:20.080Z,95828.56
2019-05-18T16:45:23.474Z,95832.08
2019-05-18T16:50:26.880Z,95825.80
2019-05-18T16:55:30.365Z,95829.06
2019-05-18T17:00:33.790Z,95820.83
2019-05-18T17:05:37.256Z,95816.24
2019-05-18T17:10:40.970Z,95819.66
2019-05-18T17:15:45.498Z,95821.91
2019-05-18T17:20:48.942Z,95824.58
2019-05-18T17:25:52.352Z,95824.31
2019-05-18T17:30:55.784Z,95821.59
2019-05-18T17:36:00.638Z,95823.80
2019-05-18T17:41:04.469Z,95825.90
2019-05-18T17:46:07.927Z,95830.34
2019-05-18T17:51:11.317Z,95827.90
2019-05-18T17:56:14.779Z,95829.23
2019-05-18T18:01:18.178Z,95828.06
2019-05-18T18:06:21.601Z,95837.49
2019-05-18T18:11:25.476Z,95841.73
2019-05-18T18:16:29.119Z,95836.80
2019-05-18T18:21:32.522Z,95844.50
2019-05-18T18:26:35.988Z,95852.83
2019-05-18T18:31:39.415Z,95851.92
2019-05-18T18:36:42.843Z,95857.23
2019-05-18T18:41:46.224Z,95862.53
2019-05-18T18:46:49.621Z,95856.69
2019-05-18T18:51:53.007Z,95863.66
2019-05-18T18:56:56.466Z,95860.14
2019-05-18T19:01:59.898Z,95862.48
2019-05-18T19:07:03.295Z,95872.36
2019-05-18T19:12:06.708Z,95880.39
2019-05-18T19:17:10.105Z,95882.18
2019-05-18T19:22:13.517Z,95896.47
2019-05-18T19:27:16.901Z,95896.50
2019-05-18T19:32:20.299Z,95888.10
2019-05-18T19:37:26.368Z,95897.91
2019-05-18T19:42:28.825Z,95900.58
2019-05-18T19:47:32.255Z,95909.09
2019-05-18T19:52:35.754Z,95909.83
2019-05-18T19:57:39.120Z,95909.94
2019-05-18T20:02:42.590Z,95908.93
2019-05-18T20:07:46.007Z,95915.32
2019-05-18T20:12:49.569Z,95922.05
2019-05-18T20:17:53.001Z,95916.52
2019-05-18T20:22:56.725Z,95918.65
2019-05-18T20:28:00.123Z,95913.02
2019-05-18T20:33:03.533Z,95913.94
2019-05-18T20:38:06.926Z,95918.13
2019-05-18T20:43:10.318Z,95914.91
2019-05-18T20:48:16.807Z,95909.42
2019-05-18T20:53:18.858Z,95906.11
2019-05-18T20:58:22.281Z,95911.02
2019-05-18T21:03:25.718Z,95917.37
2019-05-18T21:08:29.126Z,95911.52
2019-05-18T21:13:32.517Z,95906.47
2019-05-18T21:18:36.235Z,95895.95
2019-05-18T21:23:39.706Z,95905.05
2019-05-18T21:28:56.207Z,95906.88
2019-05-18T21:33:49.026Z,95905.09
2019-05-18T21:38:52.753Z,95906.35
2019-05-18T21:43:56.144Z,95901.77
2019-05-18T21:48:59.551Z,95902.94
2019-05-18T21:54:03.023Z,95910.84
2019-05-18T21:59:11.606Z,95906.14
2019-05-18T22:04:11.661Z,95904.11
2019-05-18T22:09:15.053Z,95900.80
2019-05-18T22:14:18.817Z,95889.25
2019-05-18T22:19:22.630Z,95889.14
2019-05-18T22:24:26.340Z,95890.97
2019-05-18T22:29:29.736Z,95887.39
2019-05-18T22:34:33.194Z,95884.64
2019-05-18T22:39:37.752Z,95878.58
2019-05-18T22:44:41.164Z,95860.58
2019-05-18T22:49:44.611Z,95869.10
2019-05-18T22:54:47.983Z,95871.12
2019-05-18T22:59:51.366Z,95861.28
2019-05-18T23:04:54.812Z,95860.55
2019-05-18T23:09:58.528Z,95855.75
2019-05-18T23:15:01.949Z,95856.70
2019-05-18T23:20:06.376Z,95854.84
2019-05-18T23:25:10.213Z,95849.84
2019-05-18T23:30:13.936Z,95843.96
2019-05-18T23:35:17.417Z,95834.89
2019-05-18T23:40:20.889Z,95846.36
2019-05-18T23:45:24.462Z,95838.37
2019-05-18T23:50:27.892Z,95837.22
2019-05-18T23:55:31.353Z,95827.04
